Time;durP1;ratioP1;P1;durP2;ratioP2;P2;SDS_P1;SDS_P2;PMS_P1;PMS_P2;Temp;Humidity;BMP_temperature;BMP_pressure;BME280_temperature;BME280_humidity;BME280_pressure;Samples;Min_cycle;Max_cycle;Signal;HPM_P1;HPM_P2
2024/02/14 00:00:28;;;;;;;5.13;2.83;;;;;;;;;;5010534;28;20399;-79
2024/02/14 00:02:53;;;;;;;7.20;3.30;;;;;;;;;;4994854;28;20038;-79
2024/02/14 00:05:19;;;;;;;5.18;3.35;;;;;;;;;;4984260;28;20030;-79
2024/02/14 00:07:44;;;;;;;4.70;2.67;;;;;;;;;;5005645;28;20071;-79
2024/02/14 00:10:10;;;;;;;4.93;3.03;;;;;;;;;;5000485;28;20471;-79
2024/02/14 00:12:36;;;;;;;4.40;3.15;;;;;;;;;;5000137;28;20518;-78
2024/02/14 00:15:07;;;;;;;4.03;2.90;;;;;;;;;;4995301;28;20075;-79
2024/02/14 00:17:36;;;;;;;5.50;3.42;;;;;;;;;;4992915;28;20026;-79
2024/02/14 00:20:03;;;;;;;5.00;3.17;;;;;;;;;;4990490;28;20033;-79
2024/02/14 00:22:28;;;;;;;5.75;3.45;;;;;;;;;;5010471;28;20108;-79
2024/02/14 00:24:54;;;;;;;5.45;3.22;;;;;;;;;;4988978;28;20155;-79
2024/02/14 00:27:19;;;;;;;5.53;3.45;;;;;;;;;;5011841;28;20033;-84
2024/02/14 00:29:46;;;;;;;4.63;3.08;;;;;;;;;;4996068;28;20021;-84
2024/02/14 00:32:12;;;;;;;6.35;3.13;;;;;;;;;;5009185;28;20021;-84
2024/02/14 00:34:38;;;;;;;5.10;3.03;;;;;;;;;;5010765;28;20026;-84
2024/02/14 00:37:03;;;;;;;5.53;3.40;;;;;;;;;;5002512;28;20022;-83
2024/02/14 00:39:29;;;;;;;4.65;3.08;;;;;;;;;;5004142;28;20026;-84
2024/02/14 00:41:55;;;;;;;5.38;3.35;;;;;;;;;;4987423;28;20539;-84
2024/02/14 00:44:21;;;;;;;7.38;3.63;;;;;;;;;;5012273;28;20037;-84
2024/02/14 00:46:48;;;;;;;5.80;3.42;;;;;;;;;;5010647;28;20017;-84
2024/02/14 00:49:14;;;;;;;5.85;3.30;;;;;;;;;;4995099;28;20096;-84
2024/02/14 00:51:39;;;;;;;7.57;3.50;;;;;;;;;;5005065;28;20444;-84
2024/02/14 00:54:05;;;;;;;4.63;3.20;;;;;;;;;;4987878;28;20395;-84
2024/02/14 00:56:31;;;;;;;5.15;3.70;;;;;;;;;;5006131;28;20088;-84
2024/02/14 00:58:56;;;;;;;6.03;3.60;;;;;;;;;;4984958;28;20475;-84
2024/02/14 01:01:22;;;;;;;5.55;4.00;;;;;;;;;;5004294;28;20030;-84
2024/02/14 01:03:48;;;;;;;6.85;4.22;;;;;;;;;;5004093;28;20026;-84
2024/02/14 01:06:14;;;;;;;6.07;3.88;;;;;;;;;;4997162;28;20030;-84
2024/02/14 01:08:41;;;;;;;7.35;4.00;;;;;;;;;;4993795;28;20025;-83
2024/02/14 01:11:06;;;;;;;5.43;3.83;;;;;;;;;;4992958;28;20034;-84
2024/02/14 01:13:32;;;;;;;5.50;3.97;;;;;;;;;;5003477;28;20539;-84
2024/02/14 01:15:57;;;;;;;5.72;3.90;;;;;;;;;;5007734;28;20084;-86
2024/02/14 01:18:23;;;;;;;6.50;4.13;;;;;;;;;;5001326;28;20030;-85
2024/02/14 01:20:49;;;;;;;5.90;3.88;;;;;;;;;;5009006;28;20029;-85
2024/02/14 01:23:15;;;;;;;6.85;4.28;;;;;;;;;;4993337;28;22088;-85
2024/02/14 01:25:42;;;;;;;7.22;3.97;;;;;;;;;;5005636;28;20387;-85
2024/02/14 01:28:08;;;;;;;6.22;4.30;;;;;;;;;;5007067;28;20030;-85
2024/02/14 01:30:35;;;;;;;6.75;4.18;;;;;;;;;;4990030;28;20032;-85
2024/02/14 01:33:03;;;;;;;8.68;4.13;;;;;;;;;;5005005;28;20030;-85
2024/02/14 01:35:29;;;;;;;6.53;4.40;;;;;;;;;;5004017;28;20116;-85
2024/02/14 01:37:55;;;;;;;6.30;4.40;;;;;;;;;;4988066;28;20029;-85
2024/02/14 01:40:20;;;;;;;6.50;4.65;;;;;;;;;;4991622;28;20570;-85
2024/02/14 01:42:46;;;;;;;6.65;4.40;;;;;;;;;;5005122;28;20036;-86
2024/02/14 01:45:12;;;;;;;6.28;4.18;;;;;;;;;;4989522;28;20509;-84
2024/02/14 01:47:39;;;;;;;7.43;4.20;;;;;;;;;;4987439;28;20042;-85
2024/02/14 01:50:08;;;;;;;7.10;4.47;;;;;;;;;;4988195;28;20357;-85
2024/02/14 01:52:35;;;;;;;6.63;4.80;;;;;;;;;;4987481;28;20021;-85
2024/02/14 01:55:02;;;;;;;8.15;4.60;;;;;;;;;;4990216;28;20022;-85
2024/02/14 01:57:28;;;;;;;9.57;4.70;;;;;;;;;;4990847;28;20029;-80
2024/02/14 01:59:56;;;;;;;8.13;4.72;;;;;;;;;;4991541;28;20089;-80
2024/02/14 02:02:22;;;;;;;6.60;4.53;;;;;;;;;;4988859;28;20886;-80
2024/02/14 02:04:47;;;;;;;7.50;4.63;;;;;;;;;;5008719;28;20057;-80
2024/02/14 02:07:13;;;;;;;7.30;4.80;;;;;;;;;;4991353;28;20057;-80
2024/02/14 02:09:38;;;;;;;6.35;4.45;;;;;;;;;;4993280;28;20026;-80
2024/02/14 02:12:07;;;;;;;7.15;4.22;;;;;;;;;;5008889;28;20180;-80
2024/02/14 02:14:33;;;;;;;6.18;4.30;;;;;;;;;;5011567;28;20029;-80
2024/02/14 02:16:59;;;;;;;6.35;4.25;;;;;;;;;;5009266;28;20138;-80
2024/02/14 02:19:24;;;;;;;6.53;4.50;;;;;;;;;;4993108;28;20095;-80
2024/02/14 02:21:50;;;;;;;7.13;4.40;;;;;;;;;;4995116;28;20033;-80
2024/02/14 02:24:15;;;;;;;6.50;4.32;;;;;;;;;;5008339;28;20030;-80
2024/02/14 02:26:40;;;;;;;7.03;4.80;;;;;;;;;;4994235;28;20113;-80
2024/02/14 02:29:06;;;;;;;8.25;4.32;;;;;;;;;;4993528;28;20434;-79
2024/02/14 02:31:32;;;;;;;7.82;4.70;;;;;;;;;;5008508;28;20034;-80
2024/02/14 02:33:57;;;;;;;6.90;4.50;;;;;;;;;;5009414;28;20057;-80
2024/02/14 02:36:24;;;;;;;8.68;4.22;;;;;;;;;;5008281;28;20547;-80
2024/02/14 02:38:50;;;;;;;7.28;4.53;;;;;;;;;;5011490;28;20376;-80
2024/02/14 02:41:15;;;;;;;9.00;4.78;;;;;;;;;;5008672;28;20034;-80
2024/02/14 02:43:40;;;;;;;7.82;4.50;;;;;;;;;;5001046;28;20399;-80
2024/02/14 02:46:09;;;;;;;6.75;4.68;;;;;;;;;;4993125;28;20364;-80
2024/02/14 02:48:34;;;;;;;6.25;4.63;;;;;;;;;;4990765;28;20117;-80
2024/02/14 02:50:59;;;;;;;7.25;5.00;;;;;;;;;;5009101;28;20116;-80
2024/02/14 02:53:25;;;;;;;8.10;4.38;;;;;;;;;;5007236;28;20037;-80
2024/02/14 02:55:51;;;;;;;6.45;4.60;;;;;;;;;;4988956;28;20033;-80
2024/02/14 02:58:16;;;;;;;7.18;4.78;;;;;;;;;;5008174;28;20109;-80
2024/02/14 03:00:42;;;;;;;7.45;4.80;;;;;;;;;;4991635;28;20435;-79
2024/02/14 03:03:08;;;;;;;7.45;4.90;;;;;;;;;;5007664;28;20037;-80
2024/02/14 03:05:34;;;;;;;8.02;4.75;;;;;;;;;;4990059;28;20023;-81
2024/02/14 03:08:00;;;;;;;9.55;4.95;;;;;;;;;;4993298;28;20095;-80
2024/02/14 03:10:26;;;;;;;7.10;5.00;;;;;;;;;;5008276;28;20030;-80
2024/02/14 03:12:52;;;;;;;8.70;5.43;;;;;;;;;;5005923;28;20033;-80
2024/02/14 03:15:19;;;;;;;7.68;5.13;;;;;;;;;;5009259;28;20022;-81
2024/02/14 03:17:45;;;;;;;6.68;5.03;;;;;;;;;;5009476;28;20483;-85
2024/02/14 03:20:15;;;;;;;7.95;5.38;;;;;;;;;;5007309;28;20022;-86
2024/02/14 03:22:47;;;;;;;9.45;5.68;;;;;;;;;;5008255;28;20399;-84
2024/02/14 03:25:20;;;;;;;9.43;5.80;;;;;;;;;;5005442;28;20030;-85
2024/02/14 03:27:49;;;;;;;9.43;5.82;;;;;;;;;;5004770;28;20030;-85
2024/02/14 03:30:16;;;;;;;10.23;5.70;;;;;;;;;;5008212;28;20026;-85
2024/02/14 03:32:41;;;;;;;8.65;5.45;;;;;;;;;;4993002;28;20033;-85
2024/02/14 03:35:07;;;;;;;9.25;5.43;;;;;;;;;;4990922;28;20395;-85
2024/02/14 03:37:33;;;;;;;9.75;6.10;;;;;;;;;;5006197;28;20029;-85
2024/02/14 03:39:59;;;;;;;6.78;5.18;;;;;;;;;;4990031;28;20029;-84
2024/02/14 03:42:26;;;;;;;9.75;6.22;;;;;;;;;;5006906;28;20025;-85
2024/02/14 03:44:51;;;;;;;7.60;5.57;;;;;;;;;;4990065;28;20140;-85
2024/02/14 03:47:17;;;;;;;10.10;6.05;;;;;;;;;;5007693;28;20025;-85
2024/02/14 03:49:42;;;;;;;8.65;5.85;;;;;;;;;;4992915;28;20376;-85
2024/02/14 03:52:09;;;;;;;9.68;6.10;;;;;;;;;;5005722;28;20112;-85
2024/02/14 03:54:38;;;;;;;10.30;5.78;;;;;;;;;;4991346;28;20033;-85
2024/02/14 03:57:08;;;;;;;9.25;6.28;;;;;;;;;;5006457;28;20118;-86
2024/02/14 03:59:36;;;;;;;10.15;6.15;;;;;;;;;;5005164;28;20097;-83
2024/02/14 04:02:01;;;;;;;10.75;6.53;;;;;;;;;;5005531;28;20245;-83
2024/02/14 04:04:26;;;;;;;10.05;6.15;;;;;;;;;;5007464;28;20812;-83
2024/02/14 04:06:52;;;;;;;9.07;6.35;;;;;;;;;;4989168;28;20117;-83
2024/02/14 04:09:17;;;;;;;9.07;6.00;;;;;;;;;;4991732;28;20018;-83
2024/02/14 04:11:43;;;;;;;10.20;6.50;;;;;;;;;;5006823;28;20037;-83
2024/02/14 04:14:08;;;;;;;12.30;6.25;;;;;;;;;;4990573;28;20041;-83
2024/02/14 04:16:34;;;;;;;9.20;6.30;;;;;;;;;;4990483;28;20076;-84
2024/02/14 04:18:59;;;;;;;11.05;7.00;;;;;;;;;;4988734;28;20028;-84
2024/02/14 04:21:24;;;;;;;12.00;7.10;;;;;;;;;;5002971;28;20125;-83
2024/02/14 04:23:50;;;;;;;8.27;5.65;;;;;;;;;;5006861;28;20026;-83
2024/02/14 04:26:21;;;;;;;10.43;6.45;;;;;;;;;;5005512;28;20022;-84
2024/02/14 04:28:47;;;;;;;10.32;6.93;;;;;;;;;;4991125;28;20044;-84
2024/02/14 04:31:12;;;;;;;13.25;7.13;;;;;;;;;;4991777;28;20030;-83
2024/02/14 04:33:38;;;;;;;10.35;7.00;;;;;;;;;;5006216;28;20391;-83
2024/02/14 04:36:05;;;;;;;11.35;7.15;;;;;;;;;;4990185;28;20026;-84
2024/02/14 04:38:30;;;;;;;9.10;6.65;;;;;;;;;;5008585;28;20021;-84
2024/02/14 04:40:57;;;;;;;12.98;7.15;;;;;;;;;;5007788;28;20426;-84
2024/02/14 04:43:22;;;;;;;11.80;6.82;;;;;;;;;;5006891;28;20042;-83
2024/02/14 04:45:48;;;;;;;11.82;7.30;;;;;;;;;;5006415;28;20028;-84
2024/02/14 04:48:13;;;;;;;8.80;6.70;;;;;;;;;;4991510;28;20033;-84
2024/02/14 04:50:39;;;;;;;8.63;6.55;;;;;;;;;;5005275;28;20104;-83
2024/02/14 04:53:04;;;;;;;8.70;6.57;;;;;;;;;;5004088;28;20018;-83
2024/02/14 04:55:30;;;;;;;9.57;6.88;;;;;;;;;;4990809;28;20610;-84
2024/02/14 04:57:55;;;;;;;9.55;6.55;;;;;;;;;;5005221;28;20029;-84
2024/02/14 05:00:20;;;;;;;11.07;6.82;;;;;;;;;;5006233;28;20060;-84
2024/02/14 05:02:46;;;;;;;9.93;6.30;;;;;;;;;;5005021;28;20531;-83
2024/02/14 05:05:11;;;;;;;9.63;7.32;;;;;;;;;;5005689;28;20052;-83
2024/02/14 05:07:37;;;;;;;9.55;6.72;;;;;;;;;;4992470;28;20524;-84
2024/02/14 05:10:02;;;;;;;7.63;6.50;;;;;;;;;;4991830;28;20080;-84
2024/02/14 05:12:28;;;;;;;8.85;7.10;;;;;;;;;;4988846;28;20033;-84
2024/02/14 05:14:53;;;;;;;10.30;7.30;;;;;;;;;;5005184;28;20041;-84
2024/02/14 05:17:19;;;;;;;11.45;7.30;;;;;;;;;;5006705;28;20030;-83
2024/02/14 05:19:44;;;;;;;9.73;7.05;;;;;;;;;;4988278;28;20040;-84
2024/02/14 05:22:10;;;;;;;9.77;6.22;;;;;;;;;;4991748;28;20439;-84
2024/02/14 05:24:38;;;;;;;8.80;6.30;;;;;;;;;;5007523;28;20037;-84
2024/02/14 05:27:05;;;;;;;8.77;7.03;;;;;;;;;;4987413;28;20029;-83
2024/02/14 05:29:30;;;;;;;8.63;6.57;;;;;;;;;;5005571;28;20057;-83
2024/02/14 05:31:56;;;;;;;10.27;7.50;;;;;;;;;;4991790;28;20515;-84
2024/02/14 05:34:21;;;;;;;9.82;7.18;;;;;;;;;;4991006;28;20502;-84
2024/02/14 05:36:47;;;;;;;11.50;7.07;;;;;;;;;;4991881;28;20060;-83
2024/02/14 05:39:14;;;;;;;10.43;7.20;;;;;;;;;;5005257;28;20084;-83
2024/02/14 05:41:39;;;;;;;9.18;7.18;;;;;;;;;;5004236;28;20037;-84
2024/02/14 05:44:05;;;;;;;10.00;7.70;;;;;;;;;;5005417;28;20031;-84
2024/02/14 05:46:30;;;;;;;10.02;7.22;;;;;;;;;;5006783;28;20452;-84
2024/02/14 05:48:57;;;;;;;10.05;6.90;;;;;;;;;;5005731;28;20032;-84
2024/02/14 05:51:23;;;;;;;10.50;7.70;;;;;;;;;;4988425;28;20163;-83
2024/02/14 05:53:48;;;;;;;9.93;7.65;;;;;;;;;;5005095;28;20021;-84
2024/02/14 05:56:14;;;;;;;9.65;7.40;;;;;;;;;;5003767;28;20028;-84
2024/02/14 05:58:39;;;;;;;10.35;7.38;;;;;;;;;;5006752;28;20032;-84
2024/02/14 06:01:06;;;;;;;9.02;7.47;;;;;;;;;;5004367;28;20471;-84
2024/02/14 06:03:31;;;;;;;9.80;7.72;;;;;;;;;;4988584;28;20057;-83
2024/02/14 06:05:57;;;;;;;9.38;7.45;;;;;;;;;;5005315;28;20064;-83
2024/02/14 06:08:23;;;;;;;11.02;6.90;;;;;;;;;;4990650;28;20037;-84
2024/02/14 06:10:49;;;;;;;9.77;7.50;;;;;;;;;;5005263;28;20032;-84
2024/02/14 06:13:14;;;;;;;8.88;6.45;;;;;;;;;;5005490;28;20034;-84
2024/02/14 06:15:40;;;;;;;8.10;6.75;;;;;;;;;;4990299;28;20357;-83
2024/02/14 06:18:06;;;;;;;8.82;6.45;;;;;;;;;;5005429;28;20426;-84
2024/02/14 06:20:32;;;;;;;9.70;6.90;;;;;;;;;;5005173;28;20034;-84
2024/02/14 06:22:57;;;;;;;8.23;6.72;;;;;;;;;;5004479;28;20029;-84
2024/02/14 06:25:23;;;;;;;8.60;6.55;;;;;;;;;;4990197;28;20057;-83
2024/02/14 06:27:48;;;;;;;10.70;6.72;;;;;;;;;;5005671;28;20487;-84
2024/02/14 06:30:14;;;;;;;8.23;6.53;;;;;;;;;;4990821;28;20123;-84
2024/02/14 06:32:39;;;;;;;8.20;6.57;;;;;;;;;;4988912;28;20494;-83
2024/02/14 06:35:05;;;;;;;9.15;6.80;;;;;;;;;;4990204;28;20033;-84
2024/02/14 06:37:30;;;;;;;8.73;6.50;;;;;;;;;;5003280;28;20480;-84
2024/02/14 06:39:56;;;;;;;8.60;6.85;;;;;;;;;;5008852;28;20022;-83
2024/02/14 06:42:22;;;;;;;10.65;7.15;;;;;;;;;;5005681;28;20026;-84
2024/02/14 06:44:47;;;;;;;10.05;7.15;;;;;;;;;;5008506;28;20112;-84
2024/02/14 06:47:13;;;;;;;10.52;6.57;;;;;;;;;;5008422;28;20034;-79
2024/02/14 06:49:38;;;;;;;9.05;7.05;;;;;;;;;;4992217;28;20438;-79
2024/02/14 06:52:04;;;;;;;9.00;6.93;;;;;;;;;;4992052;28;20034;-79
2024/02/14 06:54:29;;;;;;;11.77;7.10;;;;;;;;;;5009608;28;20402;-79
2024/02/14 06:56:55;;;;;;;10.38;8.02;;;;;;;;;;5007596;28;20422;-79
2024/02/14 06:59:20;;;;;;;10.95;7.50;;;;;;;;;;4997551;28;20026;-79
2024/02/14 07:01:46;;;;;;;10.75;8.10;;;;;;;;;;5000224;28;20378;-79
2024/02/14 07:04:11;;;;;;;9.52;7.90;;;;;;;;;;4988772;28;20033;-80
2024/02/14 07:06:36;;;;;;;12.30;8.10;;;;;;;;;;5002142;28;20113;-79
2024/02/14 07:09:02;;;;;;;12.13;8.60;;;;;;;;;;5007597;28;20112;-79
2024/02/14 07:11:27;;;;;;;10.57;8.77;;;;;;;;;;5013285;28;20021;-79
2024/02/14 07:13:53;;;;;;;11.70;8.07;;;;;;;;;;5008407;28;20022;-79
2024/02/14 07:16:18;;;;;;;14.23;8.57;;;;;;;;;;5013766;28;20030;-79
2024/02/14 07:18:43;;;;;;;11.90;8.88;;;;;;;;;;5014477;28;20427;-79
2024/02/14 07:21:09;;;;;;;10.10;8.40;;;;;;;;;;5011803;28;20026;-79
2024/02/14 07:23:34;;;;;;;13.90;8.70;;;;;;;;;;5010795;28;20427;-79
2024/02/14 07:26:03;;;;;;;10.38;8.32;;;;;;;;;;5008173;28;20029;-79
2024/02/14 07:28:28;;;;;;;14.07;8.05;;;;;;;;;;5011657;28;20030;-79
2024/02/14 07:30:54;;;;;;;11.75;8.43;;;;;;;;;;5006726;28;22890;-79
2024/02/14 07:33:19;;;;;;;11.07;7.90;;;;;;;;;;5001598;28;20080;-79
2024/02/14 07:35:47;;;;;;;11.30;7.85;;;;;;;;;;5012031;28;20471;-79
2024/02/14 07:38:12;;;;;;;10.85;7.45;;;;;;;;;;4995946;28;20034;-79
2024/02/14 07:40:39;;;;;;;11.23;7.82;;;;;;;;;;5009145;28;20034;-79
2024/02/14 07:43:06;;;;;;;11.00;7.68;;;;;;;;;;4998770;28;20034;-79
2024/02/14 07:45:31;;;;;;;13.20;7.57;;;;;;;;;;5006856;28;20053;-79
2024/02/14 07:47:57;;;;;;;11.13;7.78;;;;;;;;;;5008163;28;20022;-79
2024/02/14 07:50:22;;;;;;;9.18;7.05;;;;;;;;;;5010643;28;20381;-79
2024/02/14 07:52:48;;;;;;;9.13;7.50;;;;;;;;;;4997094;28;20053;-79
2024/02/14 07:55:13;;;;;;;8.30;6.68;;;;;;;;;;5002574;28;20026;-79
2024/02/14 07:57:39;;;;;;;10.23;7.32;;;;;;;;;;5007850;28;20026;-84
2024/02/14 08:00:08;;;;;;;12.40;7.65;;;;;;;;;;5010977;28;20025;-84
2024/02/14 08:02:34;;;;;;;12.73;8.30;;;;;;;;;;5005496;28;20022;-84
2024/02/14 08:04:59;;;;;;;10.32;7.65;;;;;;;;;;5005231;28;20029;-84
2024/02/14 08:07:25;;;;;;;12.98;8.00;;;;;;;;;;4991127;28;20129;-84
2024/02/14 08:09:50;;;;;;;13.88;8.52;;;;;;;;;;5007980;28;20033;-83
2024/02/14 08:12:15;;;;;;;11.32;7.45;;;;;;;;;;5010594;28;20021;-84
2024/02/14 08:14:41;;;;;;;10.93;7.75;;;;;;;;;;4993686;28;20495;-84
2024/02/14 08:17:06;;;;;;;12.88;8.55;;;;;;;;;;5008945;28;20471;-83
2024/02/14 08:19:32;;;;;;;11.18;8.00;;;;;;;;;;5005150;28;20038;-84
2024/02/14 08:21:59;;;;;;;12.63;7.60;;;;;;;;;;4995176;28;20025;-84
2024/02/14 08:24:25;;;;;;;11.75;7.97;;;;;;;;;;5006900;28;20025;-84
2024/02/14 08:26:51;;;;;;;11.63;8.18;;;;;;;;;;5005223;28;20312;-84
2024/02/14 08:29:16;;;;;;;12.70;8.15;;;;;;;;;;5001557;28;20444;-84
2024/02/14 08:31:42;;;;;;;14.93;8.15;;;;;;;;;;5007528;28;20033;-84
2024/02/14 08:34:09;;;;;;;10.30;6.88;;;;;;;;;;4994618;28;20026;-83
2024/02/14 08:36:40;;;;;;;10.80;7.13;;;;;;;;;;5011975;28;20025;-84
2024/02/14 08:39:06;;;;;;;13.27;7.88;;;;;;;;;;4990997;28;20072;-84
2024/02/14 08:41:32;;;;;;;14.68;7.72;;;;;;;;;;5008973;28;20022;-84
2024/02/14 08:43:57;;;;;;;11.60;7.03;;;;;;;;;;5008730;28;20117;-84
2024/02/14 08:46:23;;;;;;;12.45;7.25;;;;;;;;;;5003659;28;20468;-83
2024/02/14 08:48:49;;;;;;;13.27;7.47;;;;;;;;;;5004706;28;20037;-84
2024/02/14 08:51:14;;;;;;;11.35;7.25;;;;;;;;;;5001904;28;20058;-84
2024/02/14 08:53:42;;;;;;;8.43;6.18;;;;;;;;;;5008507;28;20491;-84
2024/02/14 08:56:09;;;;;;;11.27;7.20;;;;;;;;;;5008823;28;20053;-84
2024/02/14 08:58:35;;;;;;;9.88;7.15;;;;;;;;;;5008639;28;20538;-83
2024/02/14 09:01:00;;;;;;;11.43;7.70;;;;;;;;;;5008676;28;20030;-84
2024/02/14 09:03:25;;;;;;;11.85;7.13;;;;;;;;;;4998540;28;20072;-84
2024/02/14 09:05:52;;;;;;;10.65;6.82;;;;;;;;;;4995085;28;20108;-84
2024/02/14 09:08:20;;;;;;;9.90;6.45;;;;;;;;;;4990897;28;20065;-79
2024/02/14 09:10:46;;;;;;;10.75;6.70;;;;;;;;;;5008289;28;20018;-78
2024/02/14 09:13:11;;;;;;;14.85;7.57;;;;;;;;;;4983762;28;20030;-79
2024/02/14 09:15:37;;;;;;;11.57;7.47;;;;;;;;;;5000150;28;20025;-79
2024/02/14 09:18:03;;;;;;;10.98;7.70;;;;;;;;;;4997277;28;20487;-79
2024/02/14 09:20:29;;;;;;;15.35;7.55;;;;;;;;;;4989683;28;20088;-79
2024/02/14 09:22:55;;;;;;;13.63;7.60;;;;;;;;;;5001875;28;20022;-79
2024/02/14 09:25:23;;;;;;;10.77;6.93;;;;;;;;;;4991684;28;20402;-79
2024/02/14 09:27:48;;;;;;;12.55;7.25;;;;;;;;;;5003004;28;20030;-78
2024/02/14 09:30:14;;;;;;;12.00;7.45;;;;;;;;;;5010432;28;20041;-78
2024/02/14 09:32:39;;;;;;;13.02;8.15;;;;;;;;;;5004962;28;20026;-80
2024/02/14 09:35:06;;;;;;;13.85;7.75;;;;;;;;;;5002411;28;20457;-79
2024/02/14 09:37:32;;;;;;;12.18;7.60;;;;;;;;;;4992343;28;20061;-79
2024/02/14 09:39:58;;;;;;;14.55;7.43;;;;;;;;;;4990798;28;20492;-79
2024/02/14 09:42:31;;;;;;;14.10;7.47;;;;;;;;;;5009715;28;20038;-78
2024/02/14 09:44:59;;;;;;;13.75;6.93;;;;;;;;;;5008660;28;20106;-78
2024/02/14 09:47:25;;;;;;;11.05;7.25;;;;;;;;;;5004611;28;20064;-78
2024/02/14 09:49:52;;;;;;;12.68;7.45;;;;;;;;;;4993606;28;20076;-78
2024/02/14 09:52:20;;;;;;;11.90;6.78;;;;;;;;;;4989930;28;20041;-80
2024/02/14 09:54:45;;;;;;;15.05;7.80;;;;;;;;;;4992488;28;20399;-80
2024/02/14 09:57:13;;;;;;;11.82;7.05;;;;;;;;;;4997013;28;20036;-80
2024/02/14 09:59:39;;;;;;;10.30;6.68;;;;;;;;;;5000031;28;20027;-80
2024/02/14 10:02:04;;;;;;;12.40;6.68;;;;;;;;;;4988619;28;20121;-81
2024/02/14 10:04:30;;;;;;;11.07;6.85;;;;;;;;;;4990261;28;20148;-77
2024/02/14 10:06:56;;;;;;;9.77;6.80;;;;;;;;;;5006055;28;20030;-80
2024/02/14 10:09:22;;;;;;;9.73;6.45;;;;;;;;;;4986748;28;20033;-78
2024/02/14 10:11:48;;;;;;;13.18;7.03;;;;;;;;;;4993752;28;20594;-80
2024/02/14 10:14:13;;;;;;;13.75;6.97;;;;;;;;;;5011036;28;20026;-80
2024/02/14 10:16:39;;;;;;;15.57;7.05;;;;;;;;;;4994783;28;20030;-80
2024/02/14 10:19:07;;;;;;;9.52;6.63;;;;;;;;;;4988419;28;20037;-80
2024/02/14 10:21:33;;;;;;;10.48;6.40;;;;;;;;;;4994565;28;20036;-80
2024/02/14 10:24:02;;;;;;;10.38;6.60;;;;;;;;;;4994296;28;20399;-80
2024/02/14 10:26:29;;;;;;;11.00;6.78;;;;;;;;;;5002075;28;20030;-78
2024/02/14 10:28:56;;;;;;;10.75;6.25;;;;;;;;;;5003352;28;20611;-78
2024/02/14 10:31:25;;;;;;;8.52;6.18;;;;;;;;;;4999792;28;20475;-80
2024/02/14 10:33:52;;;;;;;11.93;7.30;;;;;;;;;;5002367;28;20034;-80
2024/02/14 10:36:20;;;;;;;10.63;6.55;;;;;;;;;;5005991;28;20064;-80
2024/02/14 10:38:48;;;;;;;11.68;6.65;;;;;;;;;;5001037;28;20113;-79
2024/02/14 10:41:14;;;;;;;12.02;7.03;;;;;;;;;;4986408;28;20495;-79
2024/02/14 10:43:46;;;;;;;10.27;6.53;;;;;;;;;;5002524;28;20034;-80
2024/02/14 10:46:22;;;;;;;13.18;7.00;;;;;;;;;;5000317;28;20108;-78
2024/02/14 10:48:53;;;;;;;12.10;6.85;;;;;;;;;;4997006;28;20026;-78
2024/02/14 10:51:21;;;;;;;11.80;6.60;;;;;;;;;;5006139;28;20498;-78
2024/02/14 10:53:49;;;;;;;10.35;6.90;;;;;;;;;;4989836;28;20042;-79
2024/02/14 10:56:19;;;;;;;12.70;7.10;;;;;;;;;;4993079;28;20030;-79
2024/02/14 10:58:47;;;;;;;11.25;6.93;;;;;;;;;;4985991;28;20030;-78
2024/02/14 11:01:14;;;;;;;14.57;6.70;;;;;;;;;;4995326;28;20367;-79
2024/02/14 11:03:41;;;;;;;11.10;6.68;;;;;;;;;;5001000;28;20588;-78
2024/02/14 11:06:06;;;;;;;10.57;6.53;;;;;;;;;;4990650;28;20034;-81
2024/02/14 11:08:33;;;;;;;8.27;6.50;;;;;;;;;;4992628;28;20081;-78
2024/02/14 11:11:00;;;;;;;11.57;7.20;;;;;;;;;;4985973;28;20022;-80
2024/02/14 11:13:30;;;;;;;10.60;6.20;;;;;;;;;;4999154;28;20038;-80
2024/02/14 11:15:59;;;;;;;9.95;6.15;;;;;;;;;;5007529;28;20022;-81
2024/02/14 11:18:32;;;;;;;10.35;6.60;;;;;;;;;;4992574;28;20030;-80
2024/02/14 11:20:58;;;;;;;8.40;6.35;;;;;;;;;;5000543;28;20541;-80
2024/02/14 11:23:24;;;;;;;11.05;6.47;;;;;;;;;;4990137;28;20030;-78
2024/02/14 11:25:49;;;;;;;9.00;6.30;;;;;;;;;;4990815;28;20117;-80
2024/02/14 11:28:25;;;;;;;11.15;6.03;;;;;;;;;;4999349;28;20554;-85
2024/02/14 11:30:51;;;;;;;10.90;5.97;;;;;;;;;;5000758;28;20046;-83
2024/02/14 11:33:18;;;;;;;11.27;6.18;;;;;;;;;;4999266;28;20066;-84
2024/02/14 11:35:47;;;;;;;8.80;5.80;;;;;;;;;;5003420;28;20056;-86
2024/02/14 11:38:14;;;;;;;8.02;5.60;;;;;;;;;;4994575;28;20061;-83
2024/02/14 11:40:40;;;;;;;10.90;6.03;;;;;;;;;;5001652;28;20076;-83
2024/02/14 11:43:14;;;;;;;8.00;5.45;;;;;;;;;;4987919;28;20116;-83
2024/02/14 11:45:41;;;;;;;9.13;5.70;;;;;;;;;;4989611;28;20022;-83
2024/02/14 11:48:12;;;;;;;8.57;5.30;;;;;;;;;;4985718;28;20061;-83
2024/02/14 11:50:41;;;;;;;8.93;5.63;;;;;;;;;;4996574;28;20416;-83
2024/02/14 11:53:09;;;;;;;10.73;6.00;;;;;;;;;;5002227;28;20491;-83
2024/02/14 11:55:37;;;;;;;9.48;5.90;;;;;;;;;;5000784;28;20558;-83
2024/02/14 11:58:06;;;;;;;10.18;5.90;;;;;;;;;;4988422;28;20061;-84
2024/02/14 12:00:32;;;;;;;7.70;5.57;;;;;;;;;;4999002;28;20037;-83
2024/02/14 12:02:57;;;;;;;7.65;5.10;;;;;;;;;;4995155;28;20379;-83
2024/02/14 12:05:23;;;;;;;8.18;5.28;;;;;;;;;;4998780;28;20044;-84
2024/02/14 12:07:50;;;;;;;6.65;4.93;;;;;;;;;;4989487;28;20503;-83
2024/02/14 12:10:17;;;;;;;7.63;5.00;;;;;;;;;;4984168;28;20035;-83
2024/02/14 12:12:46;;;;;;;6.20;4.90;;;;;;;;;;5000040;28;20029;-83
2024/02/14 12:15:13;;;;;;;6.82;5.00;;;;;;;;;;4988526;28;20049;-83
2024/02/14 12:17:39;;;;;;;7.10;4.78;;;;;;;;;;4989429;28;20113;-84
2024/02/14 12:20:09;;;;;;;9.50;4.93;;;;;;;;;;4993225;28;20042;-83
2024/02/14 12:22:35;;;;;;;6.65;4.80;;;;;;;;;;4992253;28;20025;-83
2024/02/14 12:25:01;;;;;;;6.28;4.93;;;;;;;;;;4996259;28;20027;-83
2024/02/14 12:27:26;;;;;;;7.50;4.53;;;;;;;;;;4988127;28;20463;-83
2024/02/14 12:29:51;;;;;;;7.40;4.15;;;;;;;;;;4995216;28;20096;-83
2024/02/14 12:32:18;;;;;;;6.75;4.43;;;;;;;;;;4993424;28;20037;-83
2024/02/14 12:34:44;;;;;;;7.03;4.72;;;;;;;;;;4998409;28;20434;-83
2024/02/14 12:37:11;;;;;;;7.10;4.70;;;;;;;;;;4996050;28;20049;-83
2024/02/14 12:39:37;;;;;;;5.82;4.15;;;;;;;;;;4997444;28;20033;-78
2024/02/14 12:42:03;;;;;;;5.72;4.00;;;;;;;;;;4986675;28;20124;-78
2024/02/14 12:44:28;;;;;;;6.38;4.25;;;;;;;;;;4993198;28;20684;-78
2024/02/14 12:46:54;;;;;;;6.03;4.13;;;;;;;;;;4999698;28;20044;-77
2024/02/14 12:49:19;;;;;;;6.93;4.22;;;;;;;;;;4984698;28;20836;-78
2024/02/14 12:51:46;;;;;;;6.82;4.72;;;;;;;;;;4992910;28;20049;-80
2024/02/14 12:54:14;;;;;;;6.47;4.50;;;;;;;;;;4993008;28;20036;-80
2024/02/14 12:56:39;;;;;;;6.80;4.78;;;;;;;;;;4990671;28;20036;-78
2024/02/14 12:59:05;;;;;;;6.38;4.50;;;;;;;;;;4977652;28;20030;-78
2024/02/14 13:01:31;;;;;;;6.32;4.95;;;;;;;;;;4988499;28;20033;-80
2024/02/14 13:03:57;;;;;;;6.55;4.55;;;;;;;;;;4990699;28;20503;-80
2024/02/14 13:06:23;;;;;;;6.43;4.68;;;;;;;;;;4990778;28;20056;-80
2024/02/14 13:08:48;;;;;;;5.88;4.50;;;;;;;;;;4986863;28;20516;-78
2024/02/14 13:11:14;;;;;;;6.93;4.65;;;;;;;;;;4998624;28;20048;-80
2024/02/14 13:13:42;;;;;;;6.75;4.60;;;;;;;;;;4997391;28;20030;-79
2024/02/14 13:16:07;;;;;;;6.00;4.75;;;;;;;;;;4987888;28;20511;-80
2024/02/14 13:18:33;;;;;;;8.80;4.55;;;;;;;;;;5002010;28;20038;-80
2024/02/14 13:20:59;;;;;;;6.30;4.85;;;;;;;;;;4970380;28;20030;-80
2024/02/14 13:23:27;;;;;;;6.07;4.78;;;;;;;;;;4990757;28;20030;-79
2024/02/14 13:25:53;;;;;;;6.70;4.70;;;;;;;;;;4984372;28;20022;-79
2024/02/14 13:28:18;;;;;;;7.60;4.68;;;;;;;;;;4998992;28;20030;-80
2024/02/14 13:30:44;;;;;;;7.82;4.68;;;;;;;;;;4987675;28;20060;-78
2024/02/14 13:33:11;;;;;;;6.53;4.88;;;;;;;;;;4984440;28;20041;-80
2024/02/14 13:35:38;;;;;;;5.97;4.32;;;;;;;;;;5005417;28;20128;-80
2024/02/14 13:38:05;;;;;;;6.93;4.30;;;;;;;;;;5000096;28;20117;-80
2024/02/14 13:40:31;;;;;;;6.05;4.80;;;;;;;;;;4978824;28;20030;-78
2024/02/14 13:42:57;;;;;;;6.47;4.57;;;;;;;;;;5002543;28;20030;-79
2024/02/14 13:45:22;;;;;;;7.00;4.75;;;;;;;;;;4991814;28;20065;-78
2024/02/14 13:47:48;;;;;;;5.88;4.63;;;;;;;;;;4987837;28;20038;-85
2024/02/14 13:50:13;;;;;;;6.63;4.75;;;;;;;;;;5000990;28;20136;-85
2024/02/14 13:52:39;;;;;;;7.75;5.15;;;;;;;;;;4996824;28;20056;-83
2024/02/14 13:55:07;;;;;;;7.38;4.60;;;;;;;;;;4981644;28;20025;-85
2024/02/14 13:57:39;;;;;;;6.55;4.53;;;;;;;;;;4985481;28;20056;-85
2024/02/14 14:00:09;;;;;;;6.50;4.53;;;;;;;;;;4985589;28;20026;-84
2024/02/14 14:02:36;;;;;;;6.97;5.07;;;;;;;;;;4993611;28;20072;-85
2024/02/14 14:05:03;;;;;;;7.57;4.68;;;;;;;;;;4992958;28;20125;-85
2024/02/14 14:07:29;;;;;;;6.85;4.90;;;;;;;;;;5002822;28;20041;-85
2024/02/14 14:09:54;;;;;;;7.60;5.50;;;;;;;;;;4986875;28;20029;-85
2024/02/14 14:12:19;;;;;;;6.35;4.90;;;;;;;;;;5000095;28;20488;-85
2024/02/14 14:14:45;;;;;;;7.28;5.10;;;;;;;;;;4984833;28;20026;-83
2024/02/14 14:17:10;;;;;;;6.00;4.85;;;;;;;;;;5002318;28;20037;-85
2024/02/14 14:19:36;;;;;;;9.55;5.05;;;;;;;;;;4985439;28;20330;-85
2024/02/14 14:22:02;;;;;;;7.20;4.82;;;;;;;;;;4987186;28;20622;-85
2024/02/14 14:24:29;;;;;;;6.55;5.05;;;;;;;;;;4986306;28;20522;-85
2024/02/14 14:26:55;;;;;;;7.53;4.80;;;;;;;;;;4993966;28;20022;-85
2024/02/14 14:29:20;;;;;;;6.25;4.93;;;;;;;;;;4995001;28;20780;-85
2024/02/14 14:31:46;;;;;;;5.93;4.55;;;;;;;;;;4998502;28;20025;-84